createdAt,value
2019-02-11T00:00:22.348Z,997.17
2019-02-11T00:01:22.307Z,997.20
2019-02-11T00:02:22.267Z,997.21
2019-02-11T00:03:22.231Z,997.22
2019-02-11T00:04:22.188Z,997.22
2019-02-11T00:05:22.152Z,997.25
2019-02-11T00:06:22.117Z,997.29
2019-02-11T00:07:22.068Z,997.31
2019-02-11T00:08:22.039Z,997.37
2019-02-11T00:09:21.996Z,997.35
2019-02-11T00:10:21.968Z,997.41
2019-02-11T00:11:21.929Z,997.49
2019-02-11T00:12:21.892Z,997.53
2019-02-11T00:13:21.842Z,997.58
2019-02-11T00:14:21.812Z,997.62
2019-02-11T00:15:21.774Z,997.61
2019-02-11T00:16:21.732Z,997.60
2019-02-11T00:17:21.703Z,997.66
2019-02-11T00:18:21.658Z,997.71
2019-02-11T00:19:21.620Z,997.65
2019-02-11T00:20:21.599Z,997.71
2019-02-11T00:21:21.547Z,997.73
2019-02-11T00:22:21.533Z,997.71
2019-02-11T00:23:21.473Z,997.76
2019-02-11T00:24:21.433Z,997.86
2019-02-11T00:25:21.405Z,997.84
2019-02-11T00:26:21.405Z,997.88
2019-02-11T00:27:21.369Z,997.80
2019-02-11T00:28:21.275Z,997.88
2019-02-11T00:29:21.240Z,997.91
2019-02-11T00:30:21.202Z,997.92
2019-02-11T00:31:21.192Z,997.90
2019-02-11T00:32:21.122Z,997.87
2019-02-11T00:33:21.134Z,997.93
2019-02-11T00:34:21.040Z,997.92
2019-02-11T00:35:21.013Z,997.96
2019-02-11T00:36:20.974Z,998.02
2019-02-11T00:37:20.929Z,998.00
2019-02-11T00:38:20.892Z,998.07
2019-02-11T00:39:20.861Z,998.09
2019-02-11T00:40:20.820Z,998.11
2019-02-11T00:41:20.788Z,998.17
2019-02-11T00:42:20.734Z,998.21
2019-02-11T00:43:20.700Z,998.28
2019-02-11T00:44:20.664Z,998.25
2019-02-11T00:45:20.628Z,998.34
2019-02-11T00:46:20.595Z,998.36
2019-02-11T00:47:20.564Z,998.35
2019-02-11T00:48:20.515Z,998.46
2019-02-11T00:49:20.481Z,998.43
2019-02-11T00:50:20.450Z,998.49
2019-02-11T00:51:20.395Z,998.52
2019-02-11T00:52:20.360Z,998.50
2019-02-11T00:53:20.333Z,998.52
2019-02-11T00:54:20.280Z,998.57
2019-02-11T00:55:20.248Z,998.59
2019-02-11T00:56:20.206Z,998.64
2019-02-11T00:57:20.174Z,998.74
2019-02-11T00:58:20.130Z,998.70
2019-02-11T00:59:21.047Z,998.71
2019-02-11T01:00:20.051Z,998.72
2019-02-11T01:01:20.012Z,998.78
2019-02-11T01:02:19.977Z,998.76
2019-02-11T01:03:19.947Z,998.77
2019-02-11T01:04:19.895Z,998.80
2019-02-11T01:05:19.865Z,998.83
2019-02-11T01:06:19.826Z,998.89
2019-02-11T01:07:19.789Z,998.84
2019-02-11T01:08:19.746Z,998.96
2019-02-11T01:09:19.711Z,998.98
2019-02-11T01:10:19.671Z,998.98
2019-02-11T01:11:19.627Z,999.10
2019-02-11T01:12:19.601Z,999.04
2019-02-11T01:13:27.174Z,999.08
2019-02-11T01:14:19.512Z,999.10
2019-02-11T01:15:19.476Z,999.02
2019-02-11T01:16:19.450Z,999.11
2019-02-11T01:17:19.401Z,999.09
2019-02-11T01:18:19.362Z,999.16
2019-02-11T01:19:19.323Z,999.16
2019-02-11T01:20:19.288Z,999.23
2019-02-11T01:21:19.253Z,999.24
2019-02-11T01:22:19.225Z,999.27
2019-02-11T01:23:19.171Z,999.30
2019-02-11T01:24:19.136Z,999.29
2019-02-11T01:25:19.101Z,999.33
2019-02-11T01:26:19.061Z,999.37
2019-02-11T01:27:19.017Z,999.37
2019-02-11T01:28:18.986Z,999.39
2019-02-11T01:29:18.942Z,999.42
2019-02-11T01:30:18.900Z,999.43
2019-02-11T01:31:18.857Z,999.40
2019-02-11T01:32:18.831Z,999.42
2019-02-11T01:33:18.781Z,999.42
2019-02-11T01:34:18.751Z,999.45
2019-02-11T01:35:18.725Z,999.51
2019-02-11T01:36:18.674Z,999.49
2019-02-11T01:37:18.634Z,999.58
2019-02-11T01:38:18.607Z,999.59
2019-02-11T01:39:18.556Z,999.60
2019-02-11T01:40:18.513Z,999.60
2019-02-11T01:41:18.480Z,999.64
2019-02-11T01:42:18.446Z,999.73
2019-02-11T01:43:18.407Z,999.67
2019-02-11T01:44:18.373Z,999.63
2019-02-11T01:45:18.323Z,999.68
2019-02-11T01:46:18.289Z,999.63
2019-02-11T01:47:18.246Z,999.64
2019-02-11T01:48:18.208Z,999.59
2019-02-11T01:49:18.172Z,999.61
2019-02-11T01:50:18.148Z,999.60
2019-02-11T01:51:18.102Z,999.67
2019-02-11T01:52:18.057Z,999.64
2019-02-11T01:53:18.019Z,999.70
2019-02-11T01:54:17.973Z,999.71
2019-02-11T01:55:17.937Z,999.73
2019-02-11T01:56:17.898Z,999.72
2019-02-11T01:57:17.860Z,999.80
2019-02-11T01:58:17.832Z,999.73
2019-02-11T01:59:17.784Z,999.76
2019-02-11T02:00:17.739Z,999.79
2019-02-11T02:01:17.707Z,999.78
2019-02-11T02:02:17.669Z,999.81
2019-02-11T02:03:17.637Z,999.84
2019-02-11T02:04:17.587Z,999.85
2019-02-11T02:05:17.558Z,999.85
2019-02-11T02:06:17.525Z,999.87
2019-02-11T02:07:17.477Z,999.94
2019-02-11T02:08:17.442Z,999.95
2019-02-11T02:09:17.402Z,999.93
2019-02-11T02:10:17.357Z,1000.00
2019-02-11T02:11:17.338Z,1000.01
2019-02-11T02:12:17.293Z,999.99
2019-02-11T02:13:17.263Z,1000.00
2019-02-11T02:14:17.209Z,1000.05
2019-02-11T02:15:17.175Z,1000.06
2019-02-11T02:16:17.137Z,1000.08
2019-02-11T02:17:17.098Z,1000.16
2019-02-11T02:18:17.055Z,1000.13
2019-02-11T02:19:17.018Z,1000.21
2019-02-11T02:20:16.988Z,1000.21
2019-02-11T02:21:16.950Z,1000.24
2019-02-11T02:22:16.906Z,1000.29
2019-02-11T02:23:16.869Z,1000.29
2019-02-11T02:24:16.824Z,1000.32
2019-02-11T02:25:16.794Z,1000.32
2019-02-11T02:26:16.798Z,1000.39
2019-02-11T02:27:16.716Z,1000.37
2019-02-11T02:28:16.680Z,1000.38
2019-02-11T02:29:16.641Z,1000.41
2019-02-11T02:30:16.601Z,1000.48
2019-02-11T02:31:16.565Z,1000.40
2019-02-11T02:32:16.530Z,1000.45
2019-02-11T02:33:16.481Z,1000.45
2019-02-11T02:34:16.449Z,1000.48
2019-02-11T02:35:16.404Z,1000.50
2019-02-11T02:36:16.370Z,1000.48
2019-02-11T02:37:16.339Z,1000.53
2019-02-11T02:38:16.297Z,1000.57
2019-02-11T02:39:16.261Z,1000.56
2019-02-11T02:40:16.225Z,1000.57
2019-02-11T02:41:16.188Z,1000.58
2019-02-11T02:42:16.149Z,1000.59
2019-02-11T02:43:16.105Z,1000.62
2019-02-11T02:44:16.064Z,1000.67
2019-02-11T02:45:16.026Z,1000.74
2019-02-11T02:46:15.986Z,1000.70
2019-02-11T02:47:15.962Z,1000.78
2019-02-11T02:48:15.922Z,1000.66
2019-02-11T02:49:15.878Z,1000.71
2019-02-11T02:50:15.836Z,1000.68
2019-02-11T02:51:15.803Z,1000.81
2019-02-11T02:52:15.760Z,1000.70
2019-02-11T02:53:15.717Z,1000.81
2019-02-11T02:54:15.686Z,1000.79
2019-02-11T02:55:15.643Z,1000.80
2019-02-11T02:56:15.617Z,1000.83
2019-02-11T02:57:15.581Z,1000.87
2019-02-11T02:58:15.540Z,1000.83
2019-02-11T02:59:15.498Z,1000.85
2019-02-11T03:00:15.456Z,1000.88
2019-02-11T03:01:15.422Z,1000.93
2019-02-11T03:02:15.386Z,1000.98
2019-02-11T03:03:15.345Z,1000.95
2019-02-11T03:04:15.309Z,1000.93
2019-02-11T03:05:15.260Z,1001.00
2019-02-11T03:06:15.226Z,1001.02
2019-02-11T03:07:15.192Z,1000.96
2019-02-11T03:08:15.160Z,1001.03
2019-02-11T03:09:15.114Z,1001.02
2019-02-11T03:10:15.077Z,1001.05
2019-02-11T03:11:15.057Z,1001.12
2019-02-11T03:12:15.000Z,1001.08
2019-02-11T03:13:14.970Z,1001.10
2019-02-11T03:14:14.921Z,1001.14
2019-02-11T03:15:14.881Z,1001.14
2019-02-11T03:16:14.851Z,1001.17
2019-02-11T03:17:14.807Z,1001.19
2019-02-11T03:18:14.765Z,1001.19
2019-02-11T03:19:14.742Z,1001.17
2019-02-11T03:20:14.691Z,1001.24
2019-02-11T03:21:14.660Z,1001.18
2019-02-11T03:22:14.617Z,1001.23
2019-02-11T03:23:14.590Z,1001.27
2019-02-11T03:24:14.545Z,1001.33
2019-02-11T03:25:14.509Z,1001.33
2019-02-11T03:26:14.471Z,1001.32
2019-02-11T03:27:14.436Z,1001.33
2019-02-11T03:28:14.382Z,1001.35
2019-02-11T03:29:14.351Z,1001.39
2019-02-11T03:30:14.312Z,1001.41
2019-02-11T03:31:14.283Z,1001.40
2019-02-11T03:32:14.257Z,1001.40
2019-02-11T03:33:14.240Z,1001.40
2019-02-11T03:34:14.165Z,1001.43
2019-02-11T03:35:14.126Z,1001.45
2019-02-11T03:36:14.091Z,1001.46
2019-02-11T03:37:14.046Z,1001.47
2019-02-11T03:38:14.013Z,1001.45
2019-02-11T03:39:13.989Z,1001.66
2019-02-11T03:40:13.935Z,1001.54
2019-02-11T03:41:13.892Z,1001.57
2019-02-11T03:42:13.857Z,1001.52
2019-02-11T03:43:13.825Z,1001.53
2019-02-11T03:44:15.299Z,1001.60
2019-02-11T03:45:13.747Z,1001.50
2019-02-11T03:46:13.708Z,1001.61
2019-02-11T03:47:13.679Z,1001.60
2019-02-11T03:48:13.629Z,1001.60
2019-02-11T03:49:13.593Z,1001.63
2019-02-11T03:50:13.563Z,1001.64
2019-02-11T03:51:13.518Z,1001.69
2019-02-11T03:52:13.489Z,1001.74
2019-02-11T03:53:13.456Z,1001.74
2019-02-11T03:54:13.406Z,1001.78
2019-02-11T03:55:13.364Z,1001.83
2019-02-11T03:56:13.328Z,1001.80
2019-02-11T03:57:13.298Z,1001.87
2019-02-11T03:58:13.258Z,1001.83
2019-02-11T03:59:13.224Z,1001.91
2019-02-11T04:00:13.180Z,1001.97
2019-02-11T04:01:13.138Z,1001.98
2019-02-11T04:02:14.392Z,1001.92
2019-02-11T04:03:13.070Z,1002.00
2019-02-11T04:04:13.030Z,1002.10
2019-02-11T04:05:12.995Z,1002.09
2019-02-11T04:06:12.955Z,1002.10
2019-02-11T04:07:12.918Z,1002.10
2019-02-11T04:08:12.876Z,1002.16
2019-02-11T04:09:12.835Z,1002.16
2019-02-11T04:10:12.801Z,1002.19
2019-02-11T04:11:12.759Z,1002.22
2019-02-11T04:12:12.724Z,1002.20
2019-02-11T04:13:12.689Z,1002.27
2019-02-11T04:14:12.644Z,1002.27
2019-02-11T04:15:12.614Z,1002.31
2019-02-11T04:16:12.569Z,1002.33
2019-02-11T04:17:12.537Z,1002.37
2019-02-11T04:18:12.499Z,1002.37
2019-02-11T04:19:12.460Z,1002.42
2019-02-11T04:20:12.425Z,1002.48
2019-02-11T04:21:12.385Z,1002.47
2019-02-11T04:22:12.355Z,1002.44
2019-02-11T04:23:12.314Z,1002.42
2019-02-11T04:24:12.274Z,1002.49
2019-02-11T04:25:12.235Z,1002.47
2019-02-11T04:26:12.205Z,1002.49
2019-02-11T04:27:12.162Z,1002.58
2019-02-11T04:28:12.121Z,1002.59
2019-02-11T04:29:12.090Z,1002.63
2019-02-11T04:30:12.046Z,1002.61
2019-02-11T04:31:12.026Z,1002.68
2019-02-11T04:32:11.975Z,1002.58
2019-02-11T04:33:11.926Z,1002.65
2019-02-11T04:34:11.914Z,1002.68
2019-02-11T04:35:11.856Z,1002.68
2019-02-11T04:36:11.816Z,1002.69
2019-02-11T04:37:11.778Z,1002.71
2019-02-11T04:38:11.759Z,1002.73
2019-02-11T04:39:11.705Z,1002.82
2019-02-11T04:40:11.672Z,1002.77
2019-02-11T04:41:11.634Z,1002.82
2019-02-11T04:42:11.596Z,1002.81
2019-02-11T04:43:11.551Z,1002.87
2019-02-11T04:44:11.520Z,1002.90
2019-02-11T04:45:11.475Z,1002.88
2019-02-11T04:46:11.442Z,1002.88
2019-02-11T04:47:11.401Z,1002.93
2019-02-11T04:48:11.366Z,1002.96
2019-02-11T04:49:11.330Z,1002.95
2019-02-11T04:50:11.298Z,1002.99
2019-02-11T04:51:11.252Z,1002.99
2019-02-11T04:52:11.212Z,1003.02
2019-02-11T04:53:11.189Z,1003.07
2019-02-11T04:54:11.145Z,1003.09
2019-02-11T04:55:11.105Z,1003.08
2019-02-11T04:56:11.065Z,1003.10
2019-02-11T04:57:11.025Z,1003.08
2019-02-11T04:58:10.989Z,1003.18
2019-02-11T04:59:10.962Z,1003.23
2019-02-11T05:00:10.922Z,1003.14
2019-02-11T05:01:10.872Z,1003.20
2019-02-11T05:02:10.838Z,1003.25
2019-02-11T05:03:10.815Z,1003.19
2019-02-11T05:04:10.767Z,1003.24
2019-02-11T05:05:10.721Z,1003.30
2019-02-11T05:06:10.682Z,1003.25
2019-02-11T05:07:10.657Z,1003.31
2019-02-11T05:08:10.625Z,1003.31
2019-02-11T05:09:10.572Z,1003.26
2019-02-11T05:10:10.539Z,1003.32
2019-02-11T05:11:10.500Z,1003.29
2019-02-11T05:12:10.462Z,1003.32
2019-02-11T05:13:10.425Z,1003.34
2019-02-11T05:14:10.409Z,1003.37
2019-02-11T05:15:10.343Z,1003.46
2019-02-11T05:16:10.315Z,1003.43
2019-02-11T05:17:10.275Z,1003.37
2019-02-11T05:18:10.233Z,1003.42
2019-02-11T05:19:10.196Z,1003.42
2019-02-11T05:20:10.158Z,1003.46
2019-02-11T05:21:10.122Z,1003.54
2019-02-11T05:22:10.084Z,1003.49
2019-02-11T05:23:10.048Z,1003.51
2019-02-11T05:24:10.006Z,1003.48
2019-02-11T05:25:09.978Z,1003.52
2019-02-11T05:26:09.932Z,1003.56
2019-02-11T05:27:09.907Z,1003.62
2019-02-11T05:28:09.864Z,1003.63
2019-02-11T05:29:09.826Z,1003.59
2019-02-11T05:30:09.784Z,1003.71
2019-02-11T05:31:09.740Z,1003.70
2019-02-11T05:32:09.709Z,1003.63
2019-02-11T05:33:09.685Z,1003.72
2019-02-11T05:34:09.635Z,1003.73
2019-02-11T05:35:09.595Z,1003.79
2019-02-11T05:36:09.555Z,1003.79
2019-02-11T05:37:09.527Z,1003.78
2019-02-11T05:38:09.474Z,1003.77
2019-02-11T05:39:09.444Z,1003.85
2019-02-11T05:40:09.407Z,1003.80
2019-02-11T05:41:09.370Z,1003.90
2019-02-11T05:42:09.340Z,1003.83
2019-02-11T05:43:09.291Z,1003.88
2019-02-11T05:44:09.260Z,1003.89
2019-02-11T05:45:09.221Z,1003.88
2019-02-11T05:46:09.178Z,1003.91
2019-02-11T05:47:09.153Z,1003.92
2019-02-11T05:48:09.112Z,1003.93
2019-02-11T05:49:09.069Z,1003.94
2019-02-11T05:50:09.029Z,1003.96
2019-02-11T05:51:09.001Z,1004.01
2019-02-11T05:52:09.066Z,1004.03
2019-02-11T05:53:08.918Z,1004.06
2019-02-11T05:54:08.872Z,1004.09
2019-02-11T05:55:08.844Z,1004.10
2019-02-11T05:56:08.803Z,1004.05
2019-02-11T05:57:08.764Z,1004.04
2019-02-11T05:58:08.720Z,1004.01
2019-02-11T05:59:08.699Z,1004.05
2019-02-11T06:00:08.661Z,1004.12
2019-02-11T06:01:08.613Z,1004.17
2019-02-11T06:02:08.576Z,1004.19
2019-02-11T06:03:09.649Z,1004.23
2019-02-11T06:04:08.503Z,1004.27
2019-02-11T06:05:08.459Z,1004.26
2019-02-11T06:06:08.429Z,1004.25
2019-02-11T06:07:08.385Z,1004.30
2019-02-11T06:08:08.354Z,1004.27
2019-02-11T06:09:08.315Z,1004.31
2019-02-11T06:10:08.280Z,1004.31
2019-02-11T06:11:08.235Z,1004.35
2019-02-11T06:12:08.195Z,1004.34
2019-02-11T06:13:08.156Z,1004.41
2019-02-11T06:14:08.123Z,1004.41
2019-02-11T06:15:08.084Z,1004.43
2019-02-11T06:16:08.049Z,1004.46
2019-02-11T06:17:08.010Z,1004.50
2019-02-11T06:18:07.971Z,1004.47
2019-02-11T06:19:07.936Z,1004.53
2019-02-11T06:20:07.914Z,1004.53
2019-02-11T06:21:07.859Z,1004.55
2019-02-11T06:22:07.833Z,1004.53
2019-02-11T06:23:07.788Z,1004.58
2019-02-11T06:24:07.750Z,1004.59
2019-02-11T06:25:07.722Z,1004.58
2019-02-11T06:26:07.720Z,1004.63
2019-02-11T06:27:07.645Z,1004.65
2019-02-11T06:28:07.615Z,1004.71
2019-02-11T06:29:07.566Z,1004.71
2019-02-11T06:30:07.524Z,1004.69
2019-02-11T06:31:07.494Z,1004.71
2019-02-11T06:32:07.444Z,1004.73
2019-02-11T06:33:07.404Z,1004.74
2019-02-11T06:34:07.369Z,1004.73
2019-02-11T06:35:07.352Z,1004.79
2019-02-11T06:36:12.360Z,1004.80
2019-02-11T06:37:07.257Z,1004.86
2019-02-11T06:38:07.211Z,1004.89
2019-02-11T06:39:07.182Z,1004.96
2019-02-11T06:40:07.151Z,1004.98
2019-02-11T06:41:07.106Z,1005.02
2019-02-11T06:42:07.066Z,1005.03
2019-02-11T06:43:07.031Z,1005.15
2019-02-11T06:44:06.983Z,1005.17
2019-02-11T06:45:12.841Z,1005.19
2019-02-11T06:46:06.911Z,1005.26
2019-02-11T06:47:06.877Z,1005.27
2019-02-11T06:48:06.842Z,1005.32
2019-02-11T06:49:06.807Z,1005.34
2019-02-11T06:50:06.757Z,1005.35
2019-02-11T06:51:06.732Z,1005.43
2019-02-11T06:52:06.692Z,1005.47
2019-02-11T06:53:06.647Z,1005.51
2019-02-11T06:54:06.615Z,1005.51
2019-02-11T06:55:06.572Z,1005.50
2019-02-11T06:56:06.547Z,1005.53
2019-02-11T06:57:06.505Z,1005.56
2019-02-11T06:58:06.462Z,1005.56
2019-02-11T06:59:06.423Z,1005.62
2019-02-11T07:00:06.393Z,1005.62
2019-02-11T07:01:06.342Z,1005.62
2019-02-11T07:02:06.306Z,1005.67
2019-02-11T07:03:06.270Z,1005.69
2019-02-11T07:04:06.236Z,1005.72
2019-02-11T07:05:06.207Z,1005.72
2019-02-11T07:06:06.181Z,1005.79
2019-02-11T07:07:06.131Z,1005.81
2019-02-11T07:08:07.904Z,1005.79
2019-02-11T07:09:06.051Z,1005.84
2019-02-11T07:10:06.007Z,1005.84
2019-02-11T07:11:05.976Z,1005.89
2019-02-11T07:12:05.952Z,1005.91
2019-02-11T07:13:05.888Z,1005.94
2019-02-11T07:14:05.868Z,1005.95
2019-02-11T07:15:05.833Z,1006.00
2019-02-11T07:16:05.794Z,1006.05
2019-02-11T07:17:05.752Z,1006.02
2019-02-11T07:18:05.712Z,1006.08
2019-02-11T07:19:05.677Z,1006.09
2019-02-11T07:20:05.632Z,1006.10
2019-02-11T07:21:05.593Z,1006.14
2019-02-11T07:22:05.557Z,1006.15
2019-02-11T07:23:05.522Z,1006.13
2019-02-11T07:24:05.484Z,1006.21
2019-02-11T07:25:05.447Z,1006.16
2019-02-11T07:26:05.405Z,1006.23
2019-02-11T07:27:05.379Z,1006.23
2019-02-11T07:28:05.328Z,1006.31
2019-02-11T07:29:05.306Z,1006.27
2019-02-11T07:30:05.250Z,1006.34
2019-02-11T07:31:05.224Z,1006.33
2019-02-11T07:32:05.186Z,1006.36
2019-02-11T07:33:05.138Z,1006.33
2019-02-11T07:34:05.111Z,1006.32
2019-02-11T07:35:05.064Z,1006.39
2019-02-11T07:36:05.039Z,1006.43
2019-02-11T07:37:05.002Z,1006.43
2019-02-11T07:38:04.957Z,1006.46
2019-02-11T07:39:04.916Z,1006.48
2019-02-11T07:40:04.874Z,1006.48
2019-02-11T07:41:04.839Z,1006.50
2019-02-11T07:42:04.874Z,1006.51
2019-02-11T07:43:04.763Z,1006.56
2019-02-11T07:44:04.728Z,1006.54
2019-02-11T07:45:04.683Z,1006.60
2019-02-11T07:46:04.652Z,1006.60
2019-02-11T07:47:04.608Z,1006.60
2019-02-11T07:48:04.580Z,1006.59
2019-02-11T07:49:04.533Z,1006.65
2019-02-11T07:50:04.490Z,1006.65
2019-02-11T07:51:04.471Z,1006.73
2019-02-11T07:52:04.423Z,1006.75
2019-02-11T07:53:04.384Z,1006.77
2019-02-11T07:54:04.344Z,1006.81
2019-02-11T07:55:04.305Z,1006.87
2019-02-11T07:56:04.270Z,1006.85
2019-02-11T07:57:04.238Z,1006.89
2019-02-11T07:58:04.204Z,1006.89
2019-02-11T07:59:04.158Z,1006.92
2019-02-11T08:00:04.130Z,1007.00
2019-02-11T08:01:04.086Z,1007.00
2019-02-11T08:02:04.043Z,1007.07
2019-02-11T08:03:04.009Z,1007.09
2019-02-11T08:04:03.975Z,1007.08
2019-02-11T08:05:03.936Z,1007.07
2019-02-11T08:06:03.904Z,1007.10
2019-02-11T08:07:03.846Z,1007.13
2019-02-11T08:08:03.814Z,1007.21
2019-02-11T08:09:03.775Z,1007.14
2019-02-11T08:10:03.739Z,1007.15
2019-02-11T08:11:03.706Z,1007.25
2019-02-11T08:12:03.660Z,1007.25
2019-02-11T08:13:03.640Z,1007.23
2019-02-11T08:14:03.592Z,1007.23
2019-02-11T08:15:03.564Z,1007.25
2019-02-11T08:16:03.510Z,1007.29
2019-02-11T08:17:03.476Z,1007.27
2019-02-11T08:18:03.458Z,1007.26
2019-02-11T08:19:03.411Z,1007.34
2019-02-11T08:20:03.361Z,1007.38
2019-02-11T08:21:03.326Z,1007.36
2019-02-11T08:22:03.291Z,1007.33
2019-02-11T08:23:11.027Z,1007.35
2019-02-11T08:24:03.222Z,1007.36
2019-02-11T08:25:03.179Z,1007.35
2019-02-11T08:26:03.144Z,1007.38
2019-02-11T08:27:03.102Z,1007.38
2019-02-11T08:28:03.076Z,1007.41
2019-02-11T08:29:03.049Z,1007.44
2019-02-11T08:30:02.986Z,1007.40
2019-02-11T08:31:02.955Z,1007.42
2019-02-11T08:32:02.911Z,1007.41
2019-02-11T08:33:02.876Z,1007.45
2019-02-11T08:34:02.840Z,1007.46
2019-02-11T08:35:02.800Z,1007.46
2019-02-11T08:36:02.762Z,1007.41
2019-02-11T08:37:02.728Z,1007.54
2019-02-11T08:38:02.682Z,1007.52
2019-02-11T08:39:02.655Z,1007.53
2019-02-11T08:40:02.606Z,1007.56
2019-02-11T08:41:02.572Z,1007.60
2019-02-11T08:42:02.541Z,1007.64
2019-02-11T08:43:02.498Z,1007.66
2019-02-11T08:44:02.471Z,1007.66
2019-02-11T08:45:02.430Z,1007.73
2019-02-11T08:46:02.380Z,1007.80
2019-02-11T08:47:02.350Z,1007.78
2019-02-11T08:48:02.315Z,1007.83
2019-02-11T08:49:02.275Z,1007.90
2019-02-11T08:50:02.243Z,1007.89
2019-02-11T08:51:02.201Z,1007.84
2019-02-11T08:52:02.163Z,1007.85
2019-02-11T08:53:02.131Z,1007.92
2019-02-11T08:54:02.096Z,1007.88
2019-02-11T08:55:02.057Z,1007.92
2019-02-11T08:56:03.416Z,1007.91
2019-02-11T08:57:01.981Z,1007.94
2019-02-11T08:58:01.950Z,1007.92
2019-02-11T08:59:01.932Z,1007.94
2019-02-11T09:00:01.866Z,1008.00
2019-02-11T09:01:01.827Z,1008.03
2019-02-11T09:02:01.807Z,1008.10
2019-02-11T09:03:01.753Z,1008.10
2019-02-11T09:04:01.717Z,1008.12
2019-02-11T09:05:01.693Z,1008.12
2019-02-11T09:06:01.653Z,1008.13
2019-02-11T09:07:01.607Z,1008.15
2019-02-11T09:08:01.584Z,1008.18
2019-02-11T09:09:01.528Z,1008.21
2019-02-11T09:10:01.493Z,1008.12
2019-02-11T09:11:01.457Z,1008.13
2019-02-11T09:12:01.411Z,1008.16
2019-02-11T09:13:01.382Z,1008.21
2019-02-11T09:14:01.344Z,1008.23
2019-02-11T09:15:01.313Z,1008.24
2019-02-11T09:16:01.262Z,1008.26
2019-02-11T09:17:01.228Z,1008.29
2019-02-11T09:18:01.208Z,1008.32
2019-02-11T09:19:01.152Z,1008.30
2019-02-11T09:20:01.116Z,1008.28
2019-02-11T09:21:01.083Z,1008.33
2019-02-11T09:22:07.332Z,1008.33
2019-02-11T09:23:01.012Z,1008.36
2019-02-11T09:24:00.972Z,1008.32
2019-02-11T09:25:00.934Z,1008.33
2019-02-11T09:26:00.894Z,1008.37
2019-02-11T09:27:00.860Z,1008.44
2019-02-11T09:28:00.818Z,1008.45
2019-02-11T09:29:09.505Z,1008.51
2019-02-11T09:31:05.189Z,1008.57
2019-02-11T09:32:05.129Z,1008.61
2019-02-11T09:33:05.082Z,1008.63
2019-02-11T09:34:05.089Z,1008.67
2019-02-11T09:35:05.023Z,1008.65
2019-02-11T09:36:04.975Z,1008.72
2019-02-11T09:37:04.944Z,1008.73
2019-02-11T09:38:04.924Z,1008.70
2019-02-11T09:39:04.856Z,1008.74
2019-02-11T09:40:04.831Z,1008.79
2019-02-11T09:41:04.800Z,1008.80
2019-02-11T09:42:04.753Z,1008.89
2019-02-11T09:43:04.721Z,1008.86
2019-02-11T09:44:04.683Z,1008.89
2019-02-11T09:45:04.644Z,1009.02
2019-02-11T09:46:04.600Z,1008.97
2019-02-11T09:47:04.574Z,1008.94
2019-02-11T09:48:04.535Z,1008.97
2019-02-11T09:49:04.496Z,1009.00
2019-02-11T09:50:04.464Z,1009.02
2019-02-11T09:51:04.414Z,1009.07
2019-02-11T09:52:04.386Z,1009.09
2019-02-11T09:53:04.351Z,1009.09
2019-02-11T09:54:04.315Z,1009.08
2019-02-11T09:55:04.271Z,1009.08
2019-02-11T09:56:04.249Z,1009.07
2019-02-11T09:57:04.204Z,1009.14
2019-02-11T09:58:04.171Z,1009.12
2019-02-11T09:59:04.130Z,1009.16
2019-02-11T10:00:04.094Z,1009.18
2019-02-11T10:01:04.068Z,1009.19
2019-02-11T10:02:04.010Z,1009.18
2019-02-11T10:03:03.979Z,1009.21
2019-02-11T10:04:03.941Z,1009.79
2019-02-11T10:05:03.905Z,1009.27
2019-02-11T10:06:03.871Z,1009.29
2019-02-11T10:07:03.837Z,1010.92
2019-02-11T10:08:03.797Z,1009.42
2019-02-11T10:09:03.755Z,1009.50
2019-02-11T10:10:03.714Z,1009.37
2019-02-11T10:11:03.684Z,1009.40
2019-02-11T10:12:03.657Z,1009.42
2019-02-11T10:13:03.620Z,1009.44
2019-02-11T10:14:03.580Z,1009.52
2019-02-11T10:15:03.547Z,1009.48
2019-02-11T10:16:03.510Z,1009.48
2019-02-11T10:17:03.469Z,1009.52
2019-02-11T10:18:03.426Z,1009.57
2019-02-11T10:19:03.391Z,1009.53
2019-02-11T10:20:03.355Z,1009.58
2019-02-11T10:21:03.319Z,1009.62
2019-02-11T10:22:03.280Z,1009.61
2019-02-11T10:23:03.241Z,1009.61
2019-02-11T10:24:03.217Z,1009.63
2019-02-11T10:25:03.170Z,1009.65
2019-02-11T10:26:03.147Z,1009.64
2019-02-11T10:27:03.105Z,1009.65
2019-02-11T10:28:03.068Z,1009.67
2019-02-11T10:29:03.030Z,1009.69
2019-02-11T10:30:02.991Z,1009.68
2019-02-11T10:31:02.947Z,1009.75
2019-02-11T10:32:02.914Z,1009.75
2019-02-11T10:33:02.881Z,1009.78
2019-02-11T10:34:02.843Z,1009.75
2019-02-11T10:35:02.806Z,1009.74
2019-02-11T10:36:02.776Z,1009.79
2019-02-11T10:37:02.737Z,1009.86
2019-02-11T10:38:02.695Z,1009.93
2019-02-11T10:39:02.666Z,1009.89
2019-02-11T10:40:02.627Z,1009.95
2019-02-11T10:41:02.588Z,1009.98
2019-02-11T10:42:02.546Z,1009.99
2019-02-11T10:43:02.516Z,1010.07
2019-02-11T10:44:02.466Z,1010.00
2019-02-11T10:45:02.436Z,1010.07
2019-02-11T10:46:02.397Z,1010.12
2019-02-11T10:47:02.376Z,1010.11
2019-02-11T10:48:02.323Z,1010.16
2019-02-11T10:49:02.288Z,1010.93
2019-02-11T10:50:02.252Z,1010.21
2019-02-11T10:51:02.220Z,1010.25
2019-02-11T10:52:02.177Z,1010.16
2019-02-11T10:53:02.147Z,1010.23
2019-02-11T10:54:02.148Z,1010.17
2019-02-11T10:55:02.107Z,1010.18
2019-02-11T10:56:02.036Z,1010.19
2019-02-11T10:57:02.030Z,1010.21
2019-02-11T10:58:01.972Z,1010.22
2019-02-11T10:59:01.937Z,1010.52
2019-02-11T11:00:01.903Z,1010.24
2019-02-11T11:01:01.852Z,1010.27
2019-02-11T11:02:01.822Z,1010.31
2019-02-11T11:03:01.786Z,1011.17
2019-02-11T11:04:01.757Z,1011.10
2019-02-11T11:05:01.721Z,1011.12
2019-02-11T11:06:01.687Z,1010.98
2019-02-11T11:07:01.646Z,1011.05
2019-02-11T11:08:01.619Z,1010.80
2019-02-11T11:09:01.564Z,1010.25
2019-02-11T11:10:01.538Z,1010.90
2019-02-11T11:11:01.547Z,1010.83
2019-02-11T11:12:01.474Z,1011.10
2019-02-11T11:13:01.438Z,1011.10
2019-02-11T11:14:01.402Z,1011.01
2019-02-11T11:15:01.377Z,1011.04
2019-02-11T11:16:01.342Z,1011.05
2019-02-11T11:17:01.325Z,1010.90
2019-02-11T11:18:01.284Z,1010.91
2019-02-11T11:19:01.263Z,1011.06
2019-02-11T11:20:01.213Z,1010.79
2019-02-11T11:21:01.183Z,1010.54
2019-02-11T11:22:01.148Z,1010.52
2019-02-11T11:23:01.140Z,1010.89
2019-02-11T11:24:01.110Z,1011.13
2019-02-11T11:25:01.085Z,1010.67
2019-02-11T11:26:01.014Z,1011.01
2019-02-11T11:27:01.009Z,1010.74
2019-02-11T11:28:01.000Z,1010.82
2019-02-11T11:29:00.960Z,1010.72
2019-02-11T11:30:00.943Z,1010.68
2019-02-11T11:31:00.898Z,1010.81
2019-02-11T11:32:00.846Z,1010.72
2019-02-11T11:33:00.813Z,1010.88
2019-02-11T11:34:00.780Z,1010.75
2019-02-11T11:35:00.750Z,1010.76
2019-02-11T11:36:00.714Z,1010.70
2019-02-11T11:37:00.689Z,1010.76
2019-02-11T11:38:00.662Z,1010.91
2019-02-11T11:39:00.610Z,1010.82
2019-02-11T11:40:00.583Z,1010.70
2019-02-11T11:41:00.567Z,1010.70
2019-02-11T11:42:00.510Z,1010.74
2019-02-11T11:43:00.478Z,1010.71
2019-02-11T11:44:00.448Z,1010.73
2019-02-11T11:45:00.421Z,1010.77
2019-02-11T11:46:00.378Z,1010.80
2019-02-11T11:47:00.345Z,1010.74
2019-02-11T11:48:00.309Z,1010.72
2019-02-11T11:49:00.301Z,1010.79
2019-02-11T11:50:00.240Z,1010.71
2019-02-11T11:51:00.201Z,1010.78
2019-02-11T11:52:00.186Z,1010.82
2019-02-11T11:53:00.153Z,1010.79
2019-02-11T11:54:00.114Z,1010.82
2019-02-11T11:55:00.070Z,1010.82
2019-02-11T11:56:02.364Z,1010.89
2019-02-11T11:57:00.012Z,1010.91
2019-02-11T11:57:59.971Z,1011.15
2019-02-11T11:58:59.929Z,1010.85
2019-02-11T11:59:59.899Z,1010.84
2019-02-11T12:00:59.868Z,1011.01
2019-02-11T12:01:59.854Z,1011.17
2019-02-11T12:03:03.678Z,1010.94
2019-02-11T12:03:59.760Z,1011.02
2019-02-11T12:04:59.719Z,1011.13
2019-02-11T12:05:59.726Z,1011.08
2019-02-11T12:06:59.669Z,1011.09
2019-02-11T12:07:59.694Z,1011.08
2019-02-11T12:08:59.683Z,1011.12
2019-02-11T12:09:59.556Z,1011.11